Weather at Dupage Airport

Public forecast

Using degrees Fahrenheit for public forecast. Weather courtesy of forecast.io.

Current aviation weather report (METAR) for Dupage Airport

Report is more than 2 hours old.

Retrieved 2021/02/27 15:52 UTC (2 hours ago):

KDPA 271552Z 21005KT 7SM CLR 03/01 A3001 RMK AO2 SLP167 T00330011

Aviation forecast (TAF) for Dupage Airport

Retrieved 2021/02/27 12:36 UTC (5 hours ago):

TAF KDPA 271134Z 2712/2812 21006KT 1 1/2SM BR SKC TEMPO 2712/2714 1/2SM FG BKN003 FM271430 21007KT 3SM BR SCT005 FM271600 20010KT P6SM FEW120 SCT300 FM280000 16007KT P6SM BKN300 FM280800 14007KT 6SM BR SCT007 OVC020 TEMPO 2810/2812 3SM -SHRADZ BKN010